createdAt,value
2022-12-03T00:01:57.949Z,96059.72
2022-12-03T00:04:24.279Z,96058.56
2022-12-03T00:06:50.588Z,96045.16
2022-12-03T00:09:16.895Z,96043.19
2022-12-03T00:11:43.231Z,96042.41
2022-12-03T00:14:09.528Z,96040.44
2022-12-03T00:16:35.843Z,96046.75
2022-12-03T00:19:02.169Z,96042.81
2022-12-03T00:21:28.464Z,96044.78
2022-12-03T00:23:54.780Z,96046.34
2022-12-03T00:26:21.153Z,96049.50
2022-12-03T00:28:47.461Z,96054.59
2022-12-03T00:31:13.853Z,96058.53
2022-12-03T00:33:40.215Z,96070.75
2022-12-03T00:36:06.519Z,96067.97
2022-12-03T00:38:32.840Z,96076.25
2022-12-03T00:40:59.155Z,96077.03
2022-12-03T00:43:25.463Z,96079.41
2022-12-03T00:45:51.764Z,96079.00
2022-12-03T00:48:18.085Z,96081.41
2022-12-03T00:50:44.385Z,96074.69
2022-12-03T00:53:10.693Z,96079.78
2022-12-03T00:55:37.020Z,96071.91
2022-12-03T00:58:03.323Z,96075.88
2022-12-03T01:00:29.623Z,96075.09
2022-12-03T01:02:55.996Z,96070.34
2022-12-03T01:05:22.297Z,96077.41
2022-12-03T01:07:48.663Z,96068.38
2022-12-03T01:10:15.045Z,96080.16
2022-12-03T01:12:41.346Z,96072.31
2022-12-03T01:15:07.650Z,96071.13
2022-12-03T01:17:33.972Z,96070.34
2022-12-03T01:20:00.290Z,96075.06
2022-12-03T01:22:26.608Z,96069.56
2022-12-03T01:24:53.233Z,96073.91
2022-12-03T01:27:19.716Z,96065.63
2022-12-03T01:29:46.019Z,96068.78
2022-12-03T01:32:12.395Z,96075.06
2022-12-03T01:34:38.699Z,96075.44
2022-12-03T01:37:05.014Z,96072.69
2022-12-03T01:39:31.347Z,96067.97
2022-12-03T01:41:57.653Z,96081.38
2022-12-03T01:44:23.970Z,96073.06
2022-12-03T01:46:50.377Z,96075.84
2022-12-03T01:49:16.747Z,96064.78
2022-12-03T01:51:43.045Z,96075.00
2022-12-03T01:54:09.374Z,96077.78
2022-12-03T01:56:35.678Z,96073.84
2022-12-03T01:59:01.981Z,96066.75
2022-12-03T02:01:28.325Z,96068.28
2022-12-03T02:03:54.684Z,96064.00
2022-12-03T02:06:21.044Z,96064.81
2022-12-03T02:08:47.375Z,96065.56
2022-12-03T02:11:13.671Z,96063.63
2022-12-03T02:13:39.978Z,96064.03
2022-12-03T02:16:06.345Z,96055.78
2022-12-03T02:18:32.738Z,96049.50
2022-12-03T02:20:59.046Z,96046.75
2022-12-03T02:23:25.397Z,96057.75
2022-12-03T02:25:51.693Z,96056.59
2022-12-03T02:28:17.990Z,96054.53
2022-12-03T02:30:44.307Z,96056.16
2022-12-03T02:33:10.621Z,96055.00
2022-12-03T02:35:36.930Z,96056.53
2022-12-03T02:38:03.304Z,96053.00
2022-12-03T02:40:29.624Z,96060.81
2022-12-03T02:42:55.936Z,96054.97
2022-12-03T02:45:22.263Z,96056.13
2022-12-03T02:47:48.577Z,96059.69
2022-12-03T02:50:14.879Z,96056.13
2022-12-03T02:52:41.200Z,96067.16
2022-12-03T02:55:07.510Z,96066.72
2022-12-03T02:57:33.807Z,96076.53
2022-12-03T03:00:00.147Z,96078.53
2022-12-03T03:02:26.597Z,96083.25
2022-12-03T03:04:53.183Z,96085.28
2022-12-03T03:07:19.724Z,96089.59
2022-12-03T03:09:46.031Z,96088.00
2022-12-03T03:12:12.355Z,96091.19
2022-12-03T03:14:38.683Z,96086.06
2022-12-03T03:17:04.986Z,96083.69
2022-12-03T03:19:31.280Z,96066.41
2022-12-03T03:21:57.613Z,96070.72
2022-12-03T03:24:23.913Z,96062.47
2022-12-03T03:26:50.223Z,96061.28
2022-12-03T03:29:16.539Z,96068.78
2022-12-03T03:31:42.908Z,96065.63
2022-12-03T03:34:09.255Z,96070.72
2022-12-03T03:36:35.578Z,96069.13
2022-12-03T03:39:01.884Z,96075.03
2022-12-03T03:41:28.190Z,96080.13
2022-12-03T03:43:54.551Z,96082.88
2022-12-03T03:46:20.907Z,96087.53
2022-12-03T03:48:47.255Z,96083.22
2022-12-03T03:51:13.608Z,96088.81
2022-12-03T03:53:39.934Z,96083.63
2022-12-03T03:56:06.281Z,96091.50
2022-12-03T03:58:32.613Z,96086.00
2022-12-03T04:00:58.974Z,96078.56
2022-12-03T04:03:25.341Z,96087.59
2022-12-03T04:05:51.716Z,96081.66
2022-12-03T04:08:18.047Z,96083.59
2022-12-03T04:10:44.381Z,96078.81
2022-12-03T04:13:10.701Z,96073.75
2022-12-03T04:15:37.113Z,96070.66
2022-12-03T04:18:03.411Z,96058.81
2022-12-03T04:20:29.740Z,96072.59
2022-12-03T04:22:56.052Z,96063.16
2022-12-03T04:25:22.369Z,96070.97
2022-12-03T04:27:48.687Z,96074.97
2022-12-03T04:30:14.982Z,96071.84
2022-12-03T04:32:41.284Z,96080.84
2022-12-03T04:35:07.673Z,96067.09
2022-12-03T04:37:33.985Z,96063.97
2022-12-03T04:40:00.287Z,96067.47
2022-12-03T04:42:26.617Z,96076.84
2022-12-03T04:44:53.083Z,96073.38
2022-12-03T04:47:19.560Z,96069.50
2022-12-03T04:49:45.915Z,96068.31
2022-12-03T04:52:12.207Z,96075.34
2022-12-03T04:54:38.507Z,96081.66
2022-12-03T04:57:04.822Z,96072.63
2022-12-03T04:59:31.136Z,96079.78
2022-12-03T05:01:57.436Z,96084.06
2022-12-03T05:04:23.754Z,96089.94
2022-12-03T05:06:50.057Z,96087.56
2022-12-03T05:09:16.361Z,96100.84
2022-12-03T05:11:42.674Z,96089.13
2022-12-03T05:14:08.971Z,96098.59
2022-12-03T05:16:35.340Z,96087.03
2022-12-03T05:19:01.725Z,96082.84
2022-12-03T05:21:28.027Z,96084.72
2022-12-03T05:23:54.320Z,96085.16
2022-12-03T05:26:20.642Z,96085.97
2022-12-03T05:28:46.957Z,96085.53
2022-12-03T05:31:13.294Z,96088.22
2022-12-03T05:33:44.137Z,96080.41
2022-12-03T05:36:10.918Z,96083.63
2022-12-03T05:38:37.230Z,96074.22
2022-12-03T05:41:03.553Z,96066.28
2022-12-03T05:43:29.879Z,96063.53
2022-12-03T05:45:56.219Z,96063.91
2022-12-03T05:48:22.567Z,96063.97
2022-12-03T05:50:48.865Z,96056.09
2022-12-03T05:53:15.157Z,96060.44
2022-12-03T05:55:41.505Z,96066.31
2022-12-03T05:58:07.800Z,96068.25
2022-12-03T06:00:39.090Z,96068.66
2022-12-03T06:03:08.481Z,96063.50
2022-12-03T06:05:34.882Z,96063.91
2022-12-03T06:08:01.225Z,96059.22
2022-12-03T06:10:27.614Z,96056.09
2022-12-03T06:12:53.918Z,96056.00
2022-12-03T06:15:20.223Z,96064.69
2022-12-03T06:17:46.552Z,96057.19
2022-12-03T06:20:12.863Z,96056.75
2022-12-03T06:22:39.176Z,96058.41
2022-12-03T06:25:07.312Z,96049.72
2022-12-03T06:27:33.749Z,96052.13
2022-12-03T06:30:00.041Z,96052.94
2022-12-03T06:32:26.376Z,96051.38
2022-12-03T06:34:53.054Z,96043.47
2022-12-03T06:37:19.583Z,96053.25
2022-12-03T06:39:45.926Z,96067.69
2022-12-03T06:42:12.232Z,96070.28
2022-12-03T06:44:38.539Z,96073.13
2022-12-03T06:47:04.909Z,96066.13
2022-12-03T06:49:31.214Z,96062.31
2022-12-03T06:51:57.524Z,96063.47
2022-12-03T06:54:23.840Z,96063.50
2022-12-03T06:56:50.141Z,96072.59
2022-12-03T06:59:16.462Z,96077.97
2022-12-03T07:01:42.946Z,96075.59
2022-12-03T07:04:09.299Z,96076.84
2022-12-03T07:06:35.612Z,96081.16
2022-12-03T07:09:02.006Z,96082.00
2022-12-03T07:11:28.316Z,96078.03
2022-12-03T07:13:54.625Z,96081.22
2022-12-03T07:16:20.983Z,96087.38
2022-12-03T07:18:47.306Z,96069.78
2022-12-03T07:21:13.604Z,96078.34
2022-12-03T07:23:39.935Z,96080.31
2022-12-03T07:26:06.274Z,96066.63
2022-12-03T07:28:32.558Z,96070.88
2022-12-03T07:30:58.934Z,96081.16
2022-12-03T07:33:25.256Z,96083.47
2022-12-03T07:35:51.565Z,96083.50
2022-12-03T07:38:17.892Z,96078.81
2022-12-03T07:40:44.212Z,96067.88
2022-12-03T07:43:10.522Z,96077.31
2022-12-03T07:45:36.857Z,96079.69
2022-12-03T07:48:03.164Z,96080.41
2022-12-03T07:50:29.494Z,96080.78
2022-12-03T07:52:55.830Z,96073.69
2022-12-03T07:55:22.138Z,96082.69
2022-12-03T07:57:48.443Z,96074.56
2022-12-03T08:00:14.784Z,96076.78
2022-12-03T08:02:41.206Z,96061.56
2022-12-03T08:05:07.582Z,96067.50
2022-12-03T08:07:33.996Z,96065.91
2022-12-03T08:10:00.331Z,96074.44
2022-12-03T08:12:26.645Z,96073.97
2022-12-03T08:14:53.285Z,96070.41
2022-12-03T08:17:19.819Z,96069.97
2022-12-03T08:19:46.166Z,96064.91
2022-12-03T08:22:12.510Z,96060.63
2022-12-03T08:24:38.813Z,96061.44
2022-12-03T08:27:05.120Z,96067.03
2022-12-03T08:29:31.762Z,96063.47
2022-12-03T08:31:58.104Z,96066.22
2022-12-03T08:34:24.440Z,96067.72
2022-12-03T08:36:50.832Z,96075.56
2022-12-03T08:39:17.135Z,96072.41
2022-12-03T08:41:43.592Z,96076.31
2022-12-03T08:44:09.915Z,96066.75
2022-12-03T08:46:36.233Z,96065.97
2022-12-03T08:49:02.537Z,96061.22
2022-12-03T08:51:28.872Z,96062.69
2022-12-03T08:54:01.140Z,96062.47
2022-12-03T08:56:27.992Z,96059.03
2022-12-03T08:58:54.311Z,96052.31
2022-12-03T09:01:20.742Z,96055.81
2022-12-03T09:03:47.165Z,96046.41
2022-12-03T09:06:13.519Z,96044.94
2022-12-03T09:08:39.833Z,96048.31
2022-12-03T09:11:06.131Z,96054.22
2022-12-03T09:13:32.548Z,96047.13
2022-12-03T09:15:58.850Z,96045.19
2022-12-03T09:18:25.327Z,96056.13
2022-12-03T09:20:51.652Z,96055.72
2022-12-03T09:23:17.989Z,96064.44
2022-12-03T09:25:44.326Z,96062.81
2022-12-03T09:28:10.670Z,96066.72
2022-12-03T09:30:36.965Z,96049.47
2022-12-03T09:33:03.277Z,96058.84
2022-12-03T09:35:29.802Z,96051.75
2022-12-03T09:37:56.176Z,96043.09
2022-12-03T09:40:22.511Z,96051.69
2022-12-03T09:42:48.885Z,96048.59
2022-12-03T09:45:15.181Z,96044.72
2022-12-03T09:47:56.631Z,96050.34
2022-12-03T09:50:22.953Z,96048.38
2022-12-03T09:52:49.264Z,96052.63
2022-12-03T09:55:15.587Z,96045.94
2022-12-03T09:57:41.886Z,96042.41
2022-12-03T10:00:08.179Z,96026.75
2022-12-03T10:02:34.516Z,96025.56
2022-12-03T10:05:00.898Z,96032.59
2022-12-03T10:07:27.353Z,96036.88
2022-12-03T10:09:53.989Z,96028.25
2022-12-03T10:12:20.546Z,96029.09
2022-12-03T10:14:46.852Z,96019.63
2022-12-03T10:17:13.337Z,96029.44
2022-12-03T10:19:39.736Z,96036.78
2022-12-03T10:22:06.051Z,96017.13
2022-12-03T10:24:32.404Z,96020.25
2022-12-03T10:26:58.722Z,96025.38
2022-12-03T10:29:31.333Z,96030.13
2022-12-03T10:31:59.794Z,96019.59
2022-12-03T10:34:26.320Z,96026.78
2022-12-03T10:36:53.069Z,96018.16
2022-12-03T10:39:19.404Z,96018.53
2022-12-03T10:41:45.801Z,96016.56
2022-12-03T10:44:12.159Z,96021.56
2022-12-03T10:46:38.627Z,96011.84
2022-12-03T10:49:05.039Z,96006.72
2022-12-03T10:51:31.335Z,96000.13
2022-12-03T10:53:57.672Z,95993.81
2022-12-03T10:56:24.014Z,96004.09
2022-12-03T10:58:50.530Z,96004.34
2022-12-03T11:01:16.944Z,96001.22
2022-12-03T11:03:43.309Z,96004.31
2022-12-03T11:06:09.653Z,95998.88
2022-12-03T11:08:35.983Z,95991.47
2022-12-03T11:11:02.292Z,95984.41
2022-12-03T11:13:28.601Z,95979.69
2022-12-03T11:15:55.022Z,95983.97
2022-12-03T11:18:21.378Z,95972.59
2022-12-03T11:20:47.703Z,95975.34
2022-12-03T11:23:14.063Z,95963.53
2022-12-03T11:25:40.379Z,95964.69
2022-12-03T11:28:06.675Z,95958.34
2022-12-03T11:30:33.005Z,95959.97
2022-12-03T11:32:59.317Z,95961.09
2022-12-03T11:35:25.629Z,95948.91
2022-12-03T11:37:51.970Z,95954.34
2022-12-03T11:40:18.285Z,95950.06
2022-12-03T11:42:44.595Z,95950.38
2022-12-03T11:45:10.954Z,95936.69
2022-12-03T11:47:37.270Z,95938.69
2022-12-03T11:50:03.588Z,95935.63
2022-12-03T11:52:29.918Z,95929.34
2022-12-03T11:54:56.225Z,95941.09
2022-12-03T11:57:22.537Z,95941.44
2022-12-03T11:59:48.854Z,95934.78
2022-12-03T12:02:15.160Z,95934.88
2022-12-03T12:04:41.497Z,95927.78
2022-12-03T12:07:07.891Z,95931.72
2022-12-03T12:09:34.192Z,95941.94
2022-12-03T12:12:00.499Z,95938.38
2022-12-03T12:14:26.831Z,95933.31
2022-12-03T12:16:53.153Z,95924.66
2022-12-03T12:19:19.462Z,95934.88
2022-12-03T12:21:45.783Z,95914.34
2022-12-03T12:24:12.094Z,95905.00
2022-12-03T12:26:38.407Z,95910.13
2022-12-03T12:29:04.766Z,95916.84
2022-12-03T12:31:31.153Z,95917.66
2022-12-03T12:33:57.495Z,95930.97
2022-12-03T12:36:23.807Z,95931.78
2022-12-03T12:38:50.102Z,95928.28
2022-12-03T12:41:16.410Z,95917.66
2022-12-03T12:43:42.724Z,95919.25
2022-12-03T12:46:38.728Z,95912.19
2022-12-03T12:48:59.499Z,95916.91
2022-12-03T12:51:26.174Z,95915.31
2022-12-03T12:53:52.477Z,95911.78
2022-12-03T12:56:18.791Z,95919.19
2022-12-03T12:58:45.084Z,95922.28
2022-12-03T13:01:11.469Z,95920.31
2022-12-03T13:03:37.861Z,95911.72
2022-12-03T13:06:04.167Z,95912.53
2022-12-03T13:08:30.458Z,95908.22
2022-12-03T13:10:56.783Z,95901.97
2022-12-03T13:13:23.103Z,95912.16
2022-12-03T13:15:49.549Z,95912.16
2022-12-03T13:18:15.864Z,95892.53
2022-12-03T13:20:42.163Z,95889.38
2022-12-03T13:23:08.467Z,95882.28
2022-12-03T13:25:58.897Z,95883.88
2022-12-03T13:28:21.058Z,95886.63
2022-12-03T13:30:47.398Z,95884.28
2022-12-03T13:33:13.691Z,95895.66
2022-12-03T13:35:39.981Z,95886.25
2022-12-03T13:38:06.302Z,95891.34
2022-12-03T13:40:32.599Z,95883.50
2022-12-03T13:42:58.891Z,95867.34
2022-12-03T13:45:25.349Z,95859.53
2022-12-03T13:47:51.734Z,95859.09
2022-12-03T13:50:18.022Z,95848.06
2022-12-03T13:52:44.334Z,95854.75
2022-12-03T13:55:10.631Z,95862.25
2022-12-03T13:57:36.934Z,95855.56
2022-12-03T14:00:03.240Z,95857.16
2022-12-03T14:02:29.605Z,95854.00
2022-12-03T14:05:00.263Z,95863.81
2022-12-03T14:07:27.199Z,95863.81
2022-12-03T14:09:53.819Z,95855.53
2022-12-03T14:12:20.326Z,95852.44
2022-12-03T14:14:46.648Z,95863.41
2022-12-03T14:17:13.053Z,95860.25
2022-12-03T14:19:39.426Z,95858.69
2022-12-03T14:22:05.738Z,95863.41
2022-12-03T14:24:32.027Z,95866.56
2022-12-03T14:26:58.321Z,95866.19
2022-12-03T14:29:24.639Z,95864.59
2022-12-03T14:31:50.988Z,95874.44
2022-12-03T14:34:17.305Z,95860.31
2022-12-03T14:36:43.646Z,95866.19
2022-12-03T14:39:09.938Z,95867.38
2022-12-03T14:41:36.222Z,95866.59
2022-12-03T14:44:02.541Z,95873.28
2022-12-03T14:46:28.911Z,95876.00
2022-12-03T14:48:55.203Z,95873.25
2022-12-03T14:51:21.507Z,95875.25
2022-12-03T14:53:48.013Z,95874.06
2022-12-03T14:56:14.350Z,95865.81
2022-12-03T14:58:40.657Z,95872.50
2022-12-03T15:01:06.984Z,95876.41
2022-12-03T15:03:33.323Z,95872.09
2022-12-03T15:05:59.625Z,95865.03
2022-12-03T15:08:25.906Z,95870.13
2022-12-03T15:10:52.229Z,95861.50
2022-12-03T15:13:18.561Z,95859.53
2022-12-03T15:15:44.981Z,95857.16
2022-12-03T15:18:11.286Z,95862.28
2022-12-03T15:20:37.623Z,95864.63
2022-12-03T15:23:03.929Z,95857.56
2022-12-03T15:25:30.228Z,95853.25
2022-12-03T15:27:56.556Z,95850.09
2022-12-03T15:30:22.870Z,95844.19
2022-12-03T15:32:49.206Z,95843.78
2022-12-03T15:35:15.543Z,95846.16
2022-12-03T15:37:41.862Z,95837.47
2022-12-03T15:40:08.167Z,95830.44
2022-12-03T15:42:34.540Z,95847.72
2022-12-03T15:45:00.850Z,95844.97
2022-12-03T15:47:27.159Z,95843.78
2022-12-03T15:49:53.629Z,95842.22
2022-12-03T15:52:20.138Z,95845.78
2022-12-03T15:54:46.436Z,95834.00
2022-12-03T15:57:12.782Z,95841.84
2022-12-03T15:59:39.097Z,95846.16
2022-12-03T16:02:05.530Z,95843.81
2022-12-03T16:04:31.997Z,95845.38
2022-12-03T16:06:58.304Z,95855.22
2022-12-03T16:09:27.409Z,95855.59
2022-12-03T16:11:54.149Z,95846.16
2022-12-03T16:14:20.465Z,95837.53
2022-12-03T16:16:46.759Z,95850.88
2022-12-03T16:19:13.096Z,95846.16
2022-12-03T16:21:39.391Z,95850.88
2022-12-03T16:24:05.687Z,95859.53
2022-12-03T16:26:32.060Z,95854.78
2022-12-03T16:28:58.409Z,95857.94
2022-12-03T16:31:24.823Z,95862.28
2022-12-03T16:33:51.184Z,95853.63
2022-12-03T16:36:17.481Z,95852.03
2022-12-03T16:38:43.792Z,95852.81
2022-12-03T16:41:10.134Z,95854.75
2022-12-03T16:43:36.444Z,95850.06
2022-12-03T16:46:02.874Z,95853.22
2022-12-03T16:48:29.305Z,95844.22
2022-12-03T16:50:55.604Z,95839.84
2022-12-03T16:53:21.914Z,95846.16
2022-12-03T16:55:48.231Z,95842.25
2022-12-03T16:58:14.533Z,95838.72
2022-12-03T17:00:40.844Z,95852.03
2022-12-03T17:03:07.222Z,95842.25
2022-12-03T17:05:33.592Z,95843.00
2022-12-03T17:07:59.979Z,95849.72
2022-12-03T17:10:26.362Z,95834.34
2022-12-03T17:13:10.049Z,95838.69
2022-12-03T17:15:36.802Z,95834.38
2022-12-03T17:18:03.149Z,95843.81
2022-12-03T17:20:29.456Z,95831.63
2022-12-03T17:22:55.781Z,95832.03
2022-12-03T17:25:22.082Z,95831.22
2022-12-03T17:27:48.393Z,95833.19
2022-12-03T17:30:14.714Z,95845.78
2022-12-03T17:32:41.055Z,95849.28
2022-12-03T17:35:07.372Z,95847.72
2022-12-03T17:37:33.696Z,95846.13
2022-12-03T17:40:00.007Z,95838.25
2022-12-03T17:42:26.320Z,95838.31
2022-12-03T17:44:52.644Z,95839.50
2022-12-03T17:47:21.282Z,95831.22
2022-12-03T17:49:47.603Z,95826.53
2022-12-03T17:52:13.968Z,95822.19
2022-12-03T17:55:08.376Z,95825.72
2022-12-03T17:57:26.581Z,95815.91
2022-12-03T17:59:53.094Z,95822.56
2022-12-03T18:02:19.661Z,95817.47
2022-12-03T18:04:46.059Z,95819.44
2022-12-03T18:07:12.360Z,95830.03
2022-12-03T18:09:38.671Z,95829.66
2022-12-03T18:12:04.985Z,95834.00
2022-12-03T18:14:31.292Z,95828.09
2022-12-03T18:16:57.590Z,95843.78
2022-12-03T18:19:23.921Z,95835.94
2022-12-03T18:21:50.240Z,95835.56
2022-12-03T18:24:16.569Z,95828.09
2022-12-03T18:26:42.914Z,95831.25
2022-12-03T18:29:09.227Z,95835.94
2022-12-03T18:31:35.596Z,95829.25
2022-12-03T18:34:01.958Z,95830.81
2022-12-03T18:36:28.272Z,95829.66
2022-12-03T18:38:54.578Z,95825.72
2022-12-03T18:41:20.906Z,95826.09
2022-12-03T18:43:47.216Z,95824.91
2022-12-03T18:46:31.163Z,95825.72
2022-12-03T18:48:59.831Z,95821.41
2022-12-03T18:51:26.141Z,95818.25
2022-12-03T18:53:52.452Z,95810.78
2022-12-03T18:56:18.824Z,95817.44
2022-12-03T18:58:45.137Z,95826.50
2022-12-03T19:01:11.512Z,95819.81
2022-12-03T19:03:37.870Z,95830.84
2022-12-03T19:06:04.256Z,95817.47
2022-12-03T19:08:30.557Z,95821.00
2022-12-03T19:10:56.890Z,95820.19
2022-12-03T19:13:23.191Z,95829.63
2022-12-03T19:15:49.652Z,95820.19
2022-12-03T19:18:16.034Z,95808.03
2022-12-03T19:20:42.329Z,95809.19
2022-12-03T19:23:08.627Z,95814.28
2022-12-03T19:25:34.948Z,95816.22
2022-12-03T19:28:01.244Z,95796.22
2022-12-03T19:30:27.534Z,95802.06
2022-12-03T19:32:53.849Z,95808.38
2022-12-03T19:35:20.134Z,95821.34
2022-12-03T19:37:46.463Z,95819.78
2022-12-03T19:40:12.790Z,95815.84
2022-12-03T19:42:39.076Z,95807.59
2022-12-03T19:45:05.423Z,95828.03
2022-12-03T19:47:31.741Z,95809.97
2022-12-03T19:49:58.086Z,95807.19
2022-12-03T19:52:24.434Z,95802.50
2022-12-03T19:54:50.951Z,95819.78
2022-12-03T19:57:23.054Z,95794.16
2022-12-03T19:59:49.864Z,95813.81
2022-12-03T20:02:16.299Z,95790.16
2022-12-03T20:04:42.747Z,95795.78
2022-12-03T20:07:09.043Z,95796.56
2022-12-03T20:09:35.362Z,95802.75
2022-12-03T20:12:01.648Z,95804.66
2022-12-03T20:14:27.940Z,95812.50
2022-12-03T20:16:54.316Z,95811.75
2022-12-03T20:19:20.658Z,95809.41
2022-12-03T20:21:46.954Z,95812.16
2022-12-03T20:24:13.266Z,95820.06
2022-12-03T20:26:39.557Z,95804.38
2022-12-03T20:29:05.841Z,95806.00
2022-12-03T20:31:32.239Z,95815.06
2022-12-03T20:33:58.605Z,95804.44
2022-12-03T20:36:24.895Z,95802.06
2022-12-03T20:38:51.210Z,95791.78
2022-12-03T20:41:17.501Z,95801.63
2022-12-03T20:43:43.791Z,95809.09
2022-12-03T20:46:10.211Z,95796.44
2022-12-03T20:48:36.564Z,95801.16
2022-12-03T20:51:02.859Z,95808.22
2022-12-03T20:53:29.190Z,95805.84
2022-12-03T20:55:55.505Z,95803.16
2022-12-03T20:58:21.833Z,95792.91
2022-12-03T21:00:48.184Z,95794.94
2022-12-03T21:03:14.540Z,95787.00
2022-12-03T21:05:40.855Z,95799.16
2022-12-03T21:08:07.368Z,95797.16
2022-12-03T21:10:33.715Z,95804.63
2022-12-03T21:13:00.026Z,95804.63
2022-12-03T21:15:26.364Z,95809.72
2022-12-03T21:17:52.742Z,95794.75
2022-12-03T21:20:21.243Z,95796.28
2022-12-03T21:22:47.818Z,95795.16
2022-12-03T21:25:14.129Z,95795.63
2022-12-03T21:27:40.435Z,95790.44
2022-12-03T21:30:06.767Z,95788.63
2022-12-03T21:32:33.086Z,95791.00
2022-12-03T21:34:59.402Z,95802.28
2022-12-03T21:37:25.724Z,95806.22
2022-12-03T21:39:52.223Z,95812.13
2022-12-03T21:42:36.684Z,95814.50
2022-12-03T21:45:03.506Z,95820.09
2022-12-03T21:47:35.086Z,95818.81
2022-12-03T21:50:02.833Z,95823.84
2022-12-03T21:52:29.147Z,95827.84
2022-12-03T21:54:55.448Z,95823.84
2022-12-03T21:57:21.774Z,95820.25
2022-12-03T21:59:48.066Z,95818.25
2022-12-03T22:02:14.420Z,95821.81
2022-12-03T22:04:40.800Z,95825.72
2022-12-03T22:07:07.107Z,95835.94
2022-12-03T22:09:33.411Z,95831.69
2022-12-03T22:11:59.773Z,95830.81
2022-12-03T22:14:26.103Z,95826.16
2022-12-03T22:16:52.434Z,95818.22
2022-12-03T22:19:18.754Z,95821.91
2022-12-03T22:21:45.072Z,95824.31
2022-12-03T22:24:11.380Z,95824.97
2022-12-03T22:26:37.711Z,95828.63
2022-12-03T22:29:04.022Z,95823.03
2022-12-03T22:31:30.361Z,95828.94
2022-12-03T22:33:56.708Z,95835.63
2022-12-03T22:36:23.017Z,95836.41
2022-12-03T22:38:49.324Z,95826.91
2022-12-03T22:41:15.657Z,95834.34
2022-12-03T22:43:41.971Z,95836.50
2022-12-03T22:46:08.340Z,95820.28
2022-12-03T22:48:34.701Z,95812.38
2022-12-03T22:51:01.018Z,95811.19
2022-12-03T22:53:27.317Z,95803.25
2022-12-03T22:55:53.636Z,95796.44
2022-12-03T22:58:19.949Z,95789.22
2022-12-03T23:00:46.257Z,95797.16
2022-12-03T23:03:12.743Z,95797.50
2022-12-03T23:05:39.196Z,95805.03
2022-12-03T23:08:05.579Z,95801.94
2022-12-03T23:10:34.054Z,95788.84
2022-12-03T23:13:00.521Z,95786.94
2022-12-03T23:15:26.835Z,95780.56
2022-12-03T23:17:53.199Z,95772.03
2022-12-03T23:20:19.524Z,95770.25
2022-12-03T23:22:45.837Z,95768.69
2022-12-03T23:25:12.168Z,95774.13
2022-12-03T23:27:38.463Z,95770.75
2022-12-03T23:30:04.772Z,95767.94
2022-12-03T23:32:31.110Z,95770.25
2022-12-03T23:34:57.423Z,95761.66
2022-12-03T23:37:23.728Z,95763.91
2022-12-03T23:39:50.119Z,95758.44
2022-12-03T23:42:16.427Z,95767.31
2022-12-03T23:44:42.739Z,95764.09
2022-12-03T23:47:09.066Z,95772.81
2022-12-03T23:49:35.384Z,95771.06
2022-12-03T23:52:01.700Z,95771.81
2022-12-03T23:54:28.029Z,95769.00
2022-12-03T23:56:54.335Z,95774.31
2022-12-03T23:59:20.645Z,95775.50
